sensor_id;sensor_type;location;lat;lon;timestamp;P1;durP1;ratioP1;P2;durP2;ratioP2
80557;SDS011;69901;43.524;-5.636;2023-06-22T00:02:04;9.83;;;2.73;;
80557;SDS011;69901;43.524;-5.636;2023-06-22T00:04:29;8.77;;;2.90;;
80557;SDS011;69901;43.524;-5.636;2023-06-22T00:06:54;6.80;;;2.30;;
80557;SDS011;69901;43.524;-5.636;2023-06-22T00:09:19;6.60;;;2.20;;
80557;SDS011;69901;43.524;-5.636;2023-06-22T00:11:45;8.00;;;2.70;;
80557;SDS011;69901;43.524;-5.636;2023-06-22T00:14:10;7.60;;;2.53;;
80557;SDS011;69901;43.524;-5.636;2023-06-22T00:16:35;6.78;;;2.55;;
80557;SDS011;69901;43.524;-5.636;2023-06-22T00:19:01;8.33;;;2.70;;
80557;SDS011;69901;43.524;-5.636;2023-06-22T00:21:27;8.38;;;2.53;;
80557;SDS011;69901;43.524;-5.636;2023-06-22T00:23:53;9.10;;;3.07;;
80557;SDS011;69901;43.524;-5.636;2023-06-22T00:26:19;9.73;;;3.07;;
80557;SDS011;69901;43.524;-5.636;2023-06-22T00:28:44;8.75;;;3.20;;
80557;SDS011;69901;43.524;-5.636;2023-06-22T00:31:09;9.10;;;2.93;;
80557;SDS011;69901;43.524;-5.636;2023-06-22T00:33:34;11.10;;;3.17;;
80557;SDS011;69901;43.524;-5.636;2023-06-22T00:36:00;8.37;;;3.13;;
80557;SDS011;69901;43.524;-5.636;2023-06-22T00:38:25;8.63;;;2.50;;
80557;SDS011;69901;43.524;-5.636;2023-06-22T00:40:50;9.60;;;2.70;;
80557;SDS011;69901;43.524;-5.636;2023-06-22T00:43:16;8.57;;;2.83;;
80557;SDS011;69901;43.524;-5.636;2023-06-22T00:45:41;8.55;;;3.15;;
80557;SDS011;69901;43.524;-5.636;2023-06-22T00:48:06;8.30;;;2.60;;
80557;SDS011;69901;43.524;-5.636;2023-06-22T00:50:32;7.60;;;2.47;;
80557;SDS011;69901;43.524;-5.636;2023-06-22T00:52:58;7.35;;;3.15;;
80557;SDS011;69901;43.524;-5.636;2023-06-22T00:55:24;7.28;;;2.45;;
80557;SDS011;69901;43.524;-5.636;2023-06-22T00:57:53;7.20;;;3.08;;
80557;SDS011;69901;43.524;-5.636;2023-06-22T01:00:25;8.97;;;2.73;;
80557;SDS011;69901;43.524;-5.636;2023-06-22T01:02:51;8.45;;;2.83;;
80557;SDS011;69901;43.524;-5.636;2023-06-22T01:05:20;8.45;;;3.05;;
80557;SDS011;69901;43.524;-5.636;2023-06-22T01:10:53;6.68;;;2.67;;
80557;SDS011;69901;43.524;-5.636;2023-06-22T01:16:25;7.30;;;2.80;;
80557;SDS011;69901;43.524;-5.636;2023-06-22T01:18:42;8.57;;;3.10;;
80557;SDS011;69901;43.524;-5.636;2023-06-22T01:21:09;8.77;;;2.97;;
80557;SDS011;69901;43.524;-5.636;2023-06-22T01:23:44;9.68;;;2.90;;
80557;SDS011;69901;43.524;-5.636;2023-06-22T01:26:20;7.70;;;2.33;;
80557;SDS011;69901;43.524;-5.636;2023-06-22T01:28:51;6.72;;;1.90;;
80557;SDS011;69901;43.524;-5.636;2023-06-22T01:31:19;8.57;;;2.80;;
80557;SDS011;69901;43.524;-5.636;2023-06-22T01:33:49;6.43;;;1.83;;
80557;SDS011;69901;43.524;-5.636;2023-06-22T01:36:15;6.47;;;1.85;;
80557;SDS011;69901;43.524;-5.636;2023-06-22T01:38:41;7.15;;;2.30;;
80557;SDS011;69901;43.524;-5.636;2023-06-22T01:41:06;6.93;;;2.00;;
80557;SDS011;69901;43.524;-5.636;2023-06-22T01:43:32;5.40;;;1.83;;
80557;SDS011;69901;43.524;-5.636;2023-06-22T01:45:59;6.03;;;2.20;;
80557;SDS011;69901;43.524;-5.636;2023-06-22T01:48:24;8.05;;;2.60;;
80557;SDS011;69901;43.524;-5.636;2023-06-22T01:50:51;6.50;;;2.20;;
80557;SDS011;69901;43.524;-5.636;2023-06-22T01:53:16;6.47;;;1.80;;
80557;SDS011;69901;43.524;-5.636;2023-06-22T01:55:42;6.00;;;1.80;;
80557;SDS011;69901;43.524;-5.636;2023-06-22T01:58:07;6.57;;;2.20;;
80557;SDS011;69901;43.524;-5.636;2023-06-22T02:00:33;6.73;;;1.97;;
80557;SDS011;69901;43.524;-5.636;2023-06-22T02:03:06;7.18;;;2.50;;
80557;SDS011;69901;43.524;-5.636;2023-06-22T02:05:43;5.97;;;2.40;;
80557;SDS011;69901;43.524;-5.636;2023-06-22T02:08:12;5.68;;;1.90;;
80557;SDS011;69901;43.524;-5.636;2023-06-22T02:10:41;7.50;;;2.20;;
80557;SDS011;69901;43.524;-5.636;2023-06-22T02:13:07;6.03;;;2.20;;
80557;SDS011;69901;43.524;-5.636;2023-06-22T02:15:34;6.95;;;1.70;;
80557;SDS011;69901;43.524;-5.636;2023-06-22T02:18:00;5.38;;;1.80;;
80557;SDS011;69901;43.524;-5.636;2023-06-22T02:20:25;6.37;;;1.80;;
80557;SDS011;69901;43.524;-5.636;2023-06-22T02:22:50;5.57;;;1.43;;
80557;SDS011;69901;43.524;-5.636;2023-06-22T02:25:15;5.20;;;1.93;;
80557;SDS011;69901;43.524;-5.636;2023-06-22T02:27:41;5.80;;;1.90;;
80557;SDS011;69901;43.524;-5.636;2023-06-22T02:30:07;6.35;;;1.55;;
80557;SDS011;69901;43.524;-5.636;2023-06-22T02:32:33;5.30;;;1.80;;
80557;SDS011;69901;43.524;-5.636;2023-06-22T02:35:00;6.05;;;2.10;;
80557;SDS011;69901;43.524;-5.636;2023-06-22T02:37:29;5.78;;;2.28;;
80557;SDS011;69901;43.524;-5.636;2023-06-22T02:39:54;7.03;;;2.10;;
80557;SDS011;69901;43.524;-5.636;2023-06-22T02:42:20;7.33;;;2.30;;
80557;SDS011;69901;43.524;-5.636;2023-06-22T02:44:46;8.70;;;2.47;;
80557;SDS011;69901;43.524;-5.636;2023-06-22T02:47:11;6.43;;;2.30;;
80557;SDS011;69901;43.524;-5.636;2023-06-22T02:49:37;5.43;;;1.80;;
80557;SDS011;69901;43.524;-5.636;2023-06-22T02:52:02;5.80;;;2.20;;
80557;SDS011;69901;43.524;-5.636;2023-06-22T02:54:28;6.93;;;2.03;;
80557;SDS011;69901;43.524;-5.636;2023-06-22T02:56:53;7.23;;;1.63;;
80557;SDS011;69901;43.524;-5.636;2023-06-22T02:59:18;6.00;;;1.83;;
80557;SDS011;69901;43.524;-5.636;2023-06-22T03:01:48;6.75;;;2.17;;
80557;SDS011;69901;43.524;-5.636;2023-06-22T03:04:13;7.80;;;2.50;;
80557;SDS011;69901;43.524;-5.636;2023-06-22T03:06:40;6.63;;;2.20;;
80557;SDS011;69901;43.524;-5.636;2023-06-22T03:09:06;5.70;;;2.20;;
80557;SDS011;69901;43.524;-5.636;2023-06-22T03:11:31;5.93;;;2.37;;
80557;SDS011;69901;43.524;-5.636;2023-06-22T03:13:57;6.83;;;2.73;;
80557;SDS011;69901;43.524;-5.636;2023-06-22T03:16:22;7.82;;;2.67;;
80557;SDS011;69901;43.524;-5.636;2023-06-22T03:18:47;6.60;;;2.50;;
80557;SDS011;69901;43.524;-5.636;2023-06-22T03:21:13;6.77;;;2.70;;
80557;SDS011;69901;43.524;-5.636;2023-06-22T03:23:40;5.18;;;2.30;;
80557;SDS011;69901;43.524;-5.636;2023-06-22T03:26:05;6.17;;;2.60;;
80557;SDS011;69901;43.524;-5.636;2023-06-22T03:28:30;6.73;;;2.60;;
80557;SDS011;69901;43.524;-5.636;2023-06-22T03:30:59;5.77;;;2.60;;
80557;SDS011;69901;43.524;-5.636;2023-06-22T03:33:24;6.05;;;2.08;;
80557;SDS011;69901;43.524;-5.636;2023-06-22T03:35:49;6.20;;;2.23;;
80557;SDS011;69901;43.524;-5.636;2023-06-22T03:38:18;8.27;;;2.30;;
80557;SDS011;69901;43.524;-5.636;2023-06-22T03:40:44;7.30;;;2.47;;
80557;SDS011;69901;43.524;-5.636;2023-06-22T03:43:09;5.27;;;1.87;;
80557;SDS011;69901;43.524;-5.636;2023-06-22T03:45:34;6.90;;;2.20;;
80557;SDS011;69901;43.524;-5.636;2023-06-22T03:48:00;7.03;;;2.27;;
80557;SDS011;69901;43.524;-5.636;2023-06-22T03:50:25;6.43;;;2.30;;
80557;SDS011;69901;43.524;-5.636;2023-06-22T03:52:51;6.37;;;2.20;;
80557;SDS011;69901;43.524;-5.636;2023-06-22T03:55:17;7.32;;;2.15;;
80557;SDS011;69901;43.524;-5.636;2023-06-22T03:57:42;7.23;;;2.47;;
80557;SDS011;69901;43.524;-5.636;2023-06-22T04:00:08;7.67;;;2.50;;
80557;SDS011;69901;43.524;-5.636;2023-06-22T04:02:34;6.75;;;2.22;;
80557;SDS011;69901;43.524;-5.636;2023-06-22T04:05:00;6.60;;;2.47;;
80557;SDS011;69901;43.524;-5.636;2023-06-22T04:07:25;6.43;;;2.33;;
80557;SDS011;69901;43.524;-5.636;2023-06-22T04:09:50;5.53;;;2.10;;
80557;SDS011;69901;43.524;-5.636;2023-06-22T04:12:15;6.27;;;2.60;;
80557;SDS011;69901;43.524;-5.636;2023-06-22T04:14:41;7.40;;;2.40;;
80557;SDS011;69901;43.524;-5.636;2023-06-22T04:17:06;6.35;;;2.10;;
80557;SDS011;69901;43.524;-5.636;2023-06-22T04:19:31;6.40;;;2.30;;
80557;SDS011;69901;43.524;-5.636;2023-06-22T04:21:57;6.40;;;2.53;;
80557;SDS011;69901;43.524;-5.636;2023-06-22T04:24:22;9.60;;;2.73;;
80557;SDS011;69901;43.524;-5.636;2023-06-22T04:26:47;6.47;;;2.23;;
80557;SDS011;69901;43.524;-5.636;2023-06-22T04:29:13;6.67;;;1.80;;
80557;SDS011;69901;43.524;-5.636;2023-06-22T04:31:38;9.00;;;2.20;;
80557;SDS011;69901;43.524;-5.636;2023-06-22T04:34:04;8.00;;;2.53;;
80557;SDS011;69901;43.524;-5.636;2023-06-22T04:36:35;5.37;;;1.53;;
80557;SDS011;69901;43.524;-5.636;2023-06-22T04:39:05;7.75;;;1.90;;
80557;SDS011;69901;43.524;-5.636;2023-06-22T04:41:31;5.88;;;1.77;;
80557;SDS011;69901;43.524;-5.636;2023-06-22T04:44:16;4.75;;;1.50;;
80557;SDS011;69901;43.524;-5.636;2023-06-22T04:46:51;5.80;;;1.63;;
80557;SDS011;69901;43.524;-5.636;2023-06-22T04:49:24;4.60;;;1.30;;
80557;SDS011;69901;43.524;-5.636;2023-06-22T04:51:58;5.80;;;1.45;;
80557;SDS011;69901;43.524;-5.636;2023-06-22T04:54:23;5.97;;;1.73;;
80557;SDS011;69901;43.524;-5.636;2023-06-22T04:56:48;7.37;;;1.73;;
80557;SDS011;69901;43.524;-5.636;2023-06-22T04:59:22;5.20;;;1.70;;
80557;SDS011;69901;43.524;-5.636;2023-06-22T05:01:47;6.17;;;1.83;;
80557;SDS011;69901;43.524;-5.636;2023-06-22T05:04:12;5.53;;;1.60;;
80557;SDS011;69901;43.524;-5.636;2023-06-22T05:06:37;5.65;;;1.67;;
80557;SDS011;69901;43.524;-5.636;2023-06-22T05:09:03;6.53;;;1.87;;
80557;SDS011;69901;43.524;-5.636;2023-06-22T05:11:30;4.90;;;1.60;;
80557;SDS011;69901;43.524;-5.636;2023-06-22T05:13:55;5.13;;;1.40;;
80557;SDS011;69901;43.524;-5.636;2023-06-22T05:16:21;5.97;;;1.60;;
80557;SDS011;69901;43.524;-5.636;2023-06-22T05:18:50;5.20;;;1.73;;
80557;SDS011;69901;43.524;-5.636;2023-06-22T05:21:16;5.70;;;1.58;;
80557;SDS011;69901;43.524;-5.636;2023-06-22T05:23:41;5.80;;;1.77;;
80557;SDS011;69901;43.524;-5.636;2023-06-22T05:26:06;5.97;;;1.60;;
80557;SDS011;69901;43.524;-5.636;2023-06-22T05:28:34;5.72;;;1.40;;
80557;SDS011;69901;43.524;-5.636;2023-06-22T05:30:59;5.50;;;1.70;;
80557;SDS011;69901;43.524;-5.636;2023-06-22T05:33:25;4.67;;;1.50;;
80557;SDS011;69901;43.524;-5.636;2023-06-22T05:35:50;5.27;;;1.37;;
80557;SDS011;69901;43.524;-5.636;2023-06-22T05:38:15;7.17;;;1.70;;
80557;SDS011;69901;43.524;-5.636;2023-06-22T05:40:41;5.63;;;1.93;;
80557;SDS011;69901;43.524;-5.636;2023-06-22T05:43:06;4.67;;;1.53;;
80557;SDS011;69901;43.524;-5.636;2023-06-22T05:45:31;5.75;;;1.63;;
80557;SDS011;69901;43.524;-5.636;2023-06-22T05:47:56;5.83;;;1.60;;
80557;SDS011;69901;43.524;-5.636;2023-06-22T05:50:22;6.27;;;1.77;;
80557;SDS011;69901;43.524;-5.636;2023-06-22T05:52:47;5.33;;;1.83;;
80557;SDS011;69901;43.524;-5.636;2023-06-22T05:55:12;5.90;;;1.53;;
80557;SDS011;69901;43.524;-5.636;2023-06-22T05:57:38;5.90;;;1.60;;
80557;SDS011;69901;43.524;-5.636;2023-06-22T06:00:03;4.80;;;1.50;;
80557;SDS011;69901;43.524;-5.636;2023-06-22T06:02:32;5.65;;;1.75;;
80557;SDS011;69901;43.524;-5.636;2023-06-22T06:04:58;4.97;;;1.58;;
80557;SDS011;69901;43.524;-5.636;2023-06-22T06:07:24;6.17;;;1.47;;
80557;SDS011;69901;43.524;-5.636;2023-06-22T06:09:49;5.43;;;1.80;;
80557;SDS011;69901;43.524;-5.636;2023-06-22T06:12:14;5.77;;;1.63;;
80557;SDS011;69901;43.524;-5.636;2023-06-22T06:14:40;4.50;;;1.33;;
80557;SDS011;69901;43.524;-5.636;2023-06-22T06:17:05;5.77;;;2.03;;
80557;SDS011;69901;43.524;-5.636;2023-06-22T06:19:30;7.13;;;1.90;;
80557;SDS011;69901;43.524;-5.636;2023-06-22T06:21:55;6.57;;;1.90;;
80557;SDS011;69901;43.524;-5.636;2023-06-22T06:24:21;7.25;;;2.08;;
80557;SDS011;69901;43.524;-5.636;2023-06-22T06:26:46;6.70;;;2.00;;
80557;SDS011;69901;43.524;-5.636;2023-06-22T06:29:12;5.70;;;1.70;;
80557;SDS011;69901;43.524;-5.636;2023-06-22T06:31:37;6.33;;;1.93;;
80557;SDS011;69901;43.524;-5.636;2023-06-22T06:34:03;4.72;;;1.60;;
80557;SDS011;69901;43.524;-5.636;2023-06-22T06:36:28;5.53;;;1.57;;
80557;SDS011;69901;43.524;-5.636;2023-06-22T06:38:53;4.70;;;1.60;;
80557;SDS011;69901;43.524;-5.636;2023-06-22T06:41:18;5.00;;;1.90;;
80557;SDS011;69901;43.524;-5.636;2023-06-22T06:43:44;5.43;;;1.60;;
80557;SDS011;69901;43.524;-5.636;2023-06-22T06:46:09;6.53;;;1.50;;
80557;SDS011;69901;43.524;-5.636;2023-06-22T06:48:35;5.43;;;1.70;;
80557;SDS011;69901;43.524;-5.636;2023-06-22T06:51:00;5.80;;;1.93;;
80557;SDS011;69901;43.524;-5.636;2023-06-22T06:53:26;4.87;;;1.87;;
80557;SDS011;69901;43.524;-5.636;2023-06-22T06:55:51;5.55;;;1.77;;
80557;SDS011;69901;43.524;-5.636;2023-06-22T06:58:17;6.20;;;1.77;;
80557;SDS011;69901;43.524;-5.636;2023-06-22T07:00:42;6.40;;;1.80;;
80557;SDS011;69901;43.524;-5.636;2023-06-22T07:03:08;5.32;;;1.90;;
80557;SDS011;69901;43.524;-5.636;2023-06-22T07:05:33;7.13;;;2.60;;
80557;SDS011;69901;43.524;-5.636;2023-06-22T07:07:59;5.20;;;1.80;;
80557;SDS011;69901;43.524;-5.636;2023-06-22T07:10:24;5.40;;;1.80;;
80557;SDS011;69901;43.524;-5.636;2023-06-22T07:12:50;6.20;;;1.80;;
80557;SDS011;69901;43.524;-5.636;2023-06-22T07:15:15;4.73;;;1.57;;
80557;SDS011;69901;43.524;-5.636;2023-06-22T07:17:40;4.77;;;1.70;;
80557;SDS011;69901;43.524;-5.636;2023-06-22T07:20:06;5.60;;;1.67;;
80557;SDS011;69901;43.524;-5.636;2023-06-22T07:22:35;5.60;;;1.65;;
80557;SDS011;69901;43.524;-5.636;2023-06-22T07:25:00;6.10;;;1.47;;
80557;SDS011;69901;43.524;-5.636;2023-06-22T07:27:26;6.03;;;1.90;;
80557;SDS011;69901;43.524;-5.636;2023-06-22T07:29:51;5.63;;;2.07;;
80557;SDS011;69901;43.524;-5.636;2023-06-22T07:32:17;6.50;;;1.80;;
80557;SDS011;69901;43.524;-5.636;2023-06-22T07:34:42;4.17;;;1.70;;
80557;SDS011;69901;43.524;-5.636;2023-06-22T07:37:08;6.18;;;1.85;;
80557;SDS011;69901;43.524;-5.636;2023-06-22T07:39:33;5.63;;;2.03;;
80557;SDS011;69901;43.524;-5.636;2023-06-22T07:41:59;6.57;;;2.15;;
80557;SDS011;69901;43.524;-5.636;2023-06-22T07:44:25;5.50;;;1.80;;
80557;SDS011;69901;43.524;-5.636;2023-06-22T07:46:50;6.37;;;1.70;;
80557;SDS011;69901;43.524;-5.636;2023-06-22T07:49:16;4.90;;;1.40;;
80557;SDS011;69901;43.524;-5.636;2023-06-22T07:51:42;6.07;;;1.90;;
80557;SDS011;69901;43.524;-5.636;2023-06-22T07:54:08;4.47;;;1.70;;
80557;SDS011;69901;43.524;-5.636;2023-06-22T07:56:33;5.50;;;1.80;;
80557;SDS011;69901;43.524;-5.636;2023-06-22T07:58:59;5.87;;;1.53;;
80557;SDS011;69901;43.524;-5.636;2023-06-22T08:01:26;5.32;;;1.80;;
80557;SDS011;69901;43.524;-5.636;2023-06-22T08:03:51;4.30;;;1.50;;
80557;SDS011;69901;43.524;-5.636;2023-06-22T08:06:16;4.97;;;2.00;;
80557;SDS011;69901;43.524;-5.636;2023-06-22T08:08:42;5.85;;;1.65;;
80557;SDS011;69901;43.524;-5.636;2023-06-22T08:11:07;6.10;;;2.30;;
80557;SDS011;69901;43.524;-5.636;2023-06-22T08:13:33;4.43;;;1.60;;
80557;SDS011;69901;43.524;-5.636;2023-06-22T08:15:58;4.90;;;1.67;;
80557;SDS011;69901;43.524;-5.636;2023-06-22T08:18:23;6.10;;;1.90;;
80557;SDS011;69901;43.524;-5.636;2023-06-22T08:20:49;5.67;;;1.87;;
80557;SDS011;69901;43.524;-5.636;2023-06-22T08:23:15;5.70;;;1.70;;
80557;SDS011;69901;43.524;-5.636;2023-06-22T08:25:40;6.00;;;1.48;;
80557;SDS011;69901;43.524;-5.636;2023-06-22T08:28:05;6.07;;;2.00;;
80557;SDS011;69901;43.524;-5.636;2023-06-22T08:30:30;6.40;;;2.03;;
80557;SDS011;69901;43.524;-5.636;2023-06-22T08:32:56;6.50;;;2.40;;
80557;SDS011;69901;43.524;-5.636;2023-06-22T08:35:24;5.80;;;2.20;;
80557;SDS011;69901;43.524;-5.636;2023-06-22T08:37:49;5.75;;;2.00;;
80557;SDS011;69901;43.524;-5.636;2023-06-22T08:40:18;5.40;;;1.58;;
80557;SDS011;69901;43.524;-5.636;2023-06-22T08:42:44;4.93;;;2.00;;
80557;SDS011;69901;43.524;-5.636;2023-06-22T08:45:10;6.00;;;1.83;;
80557;SDS011;69901;43.524;-5.636;2023-06-22T08:47:35;5.33;;;2.07;;
80557;SDS011;69901;43.524;-5.636;2023-06-22T08:50:01;4.50;;;1.37;;
80557;SDS011;69901;43.524;-5.636;2023-06-22T08:52:29;5.95;;;2.05;;
80557;SDS011;69901;43.524;-5.636;2023-06-22T08:54:54;5.10;;;1.90;;
80557;SDS011;69901;43.524;-5.636;2023-06-22T08:57:20;5.37;;;1.70;;
80557;SDS011;69901;43.524;-5.636;2023-06-22T08:59:45;6.13;;;1.88;;
80557;SDS011;69901;43.524;-5.636;2023-06-22T09:02:11;5.50;;;2.10;;
80557;SDS011;69901;43.524;-5.636;2023-06-22T09:04:37;5.67;;;1.83;;
80557;SDS011;69901;43.524;-5.636;2023-06-22T09:07:02;6.70;;;2.10;;
80557;SDS011;69901;43.524;-5.636;2023-06-22T09:09:28;7.97;;;2.37;;
80557;SDS011;69901;43.524;-5.636;2023-06-22T09:11:53;7.30;;;2.60;;
80557;SDS011;69901;43.524;-5.636;2023-06-22T09:14:18;7.87;;;2.83;;
80557;SDS011;69901;43.524;-5.636;2023-06-22T09:16:44;7.32;;;2.30;;
80557;SDS011;69901;43.524;-5.636;2023-06-22T09:19:09;6.83;;;2.40;;
80557;SDS011;69901;43.524;-5.636;2023-06-22T09:21:35;6.13;;;2.20;;
80557;SDS011;69901;43.524;-5.636;2023-06-22T09:24:01;5.97;;;2.45;;
80557;SDS011;69901;43.524;-5.636;2023-06-22T09:26:26;5.97;;;1.93;;
80557;SDS011;69901;43.524;-5.636;2023-06-22T09:28:51;6.70;;;2.70;;
80557;SDS011;69901;43.524;-5.636;2023-06-22T09:31:17;6.77;;;2.70;;
80557;SDS011;69901;43.524;-5.636;2023-06-22T09:33:42;7.20;;;2.30;;
80557;SDS011;69901;43.524;-5.636;2023-06-22T09:36:08;6.65;;;2.88;;
80557;SDS011;69901;43.524;-5.636;2023-06-22T09:38:36;7.87;;;2.70;;
80557;SDS011;69901;43.524;-5.636;2023-06-22T09:41:02;6.13;;;2.58;;
80557;SDS011;69901;43.524;-5.636;2023-06-22T09:43:27;6.73;;;2.30;;
80557;SDS011;69901;43.524;-5.636;2023-06-22T09:45:53;6.43;;;2.20;;
80557;SDS011;69901;43.524;-5.636;2023-06-22T09:48:18;7.33;;;2.87;;
80557;SDS011;69901;43.524;-5.636;2023-06-22T09:50:43;7.13;;;2.90;;
80557;SDS011;69901;43.524;-5.636;2023-06-22T09:53:09;6.50;;;2.53;;
80557;SDS011;69901;43.524;-5.636;2023-06-22T09:55:34;5.90;;;2.37;;
80557;SDS011;69901;43.524;-5.636;2023-06-22T09:57:59;6.70;;;2.17;;
80557;SDS011;69901;43.524;-5.636;2023-06-22T10:00:24;7.07;;;2.57;;
80557;SDS011;69901;43.524;-5.636;2023-06-22T10:02:51;6.82;;;2.35;;
80557;SDS011;69901;43.524;-5.636;2023-06-22T10:05:17;5.80;;;2.20;;
80557;SDS011;69901;43.524;-5.636;2023-06-22T10:07:42;5.07;;;1.80;;
80557;SDS011;69901;43.524;-5.636;2023-06-22T10:10:08;6.35;;;2.35;;
80557;SDS011;69901;43.524;-5.636;2023-06-22T10:12:34;7.38;;;2.50;;
80557;SDS011;69901;43.524;-5.636;2023-06-22T10:14:59;5.47;;;1.90;;
80557;SDS011;69901;43.524;-5.636;2023-06-22T10:17:25;6.93;;;2.33;;
80557;SDS011;69901;43.524;-5.636;2023-06-22T10:19:50;6.13;;;2.20;;
80557;SDS011;69901;43.524;-5.636;2023-06-22T10:22:15;6.83;;;2.70;;
80557;SDS011;69901;43.524;-5.636;2023-06-22T10:24:40;7.87;;;2.83;;
80557;SDS011;69901;43.524;-5.636;2023-06-22T10:27:10;6.38;;;2.55;;
80557;SDS011;69901;43.524;-5.636;2023-06-22T10:29:35;7.28;;;2.45;;
80557;SDS011;69901;43.524;-5.636;2023-06-22T10:32:01;5.50;;;2.07;;
80557;SDS011;69901;43.524;-5.636;2023-06-22T10:34:27;6.00;;;2.30;;
80557;SDS011;69901;43.524;-5.636;2023-06-22T10:36:52;6.87;;;2.40;;
80557;SDS011;69901;43.524;-5.636;2023-06-22T10:39:18;7.13;;;2.88;;
80557;SDS011;69901;43.524;-5.636;2023-06-22T10:41:43;6.20;;;2.23;;
80557;SDS011;69901;43.524;-5.636;2023-06-22T10:44:08;6.67;;;2.00;;
80557;SDS011;69901;43.524;-5.636;2023-06-22T10:46:34;8.40;;;2.20;;
80557;SDS011;69901;43.524;-5.636;2023-06-22T10:48:59;6.30;;;2.20;;
80557;SDS011;69901;43.524;-5.636;2023-06-22T10:51:25;6.67;;;2.13;;
80557;SDS011;69901;43.524;-5.636;2023-06-22T10:53:50;7.28;;;2.22;;
80557;SDS011;69901;43.524;-5.636;2023-06-22T10:56:16;7.33;;;1.43;;
80557;SDS011;69901;43.524;-5.636;2023-06-22T10:58:41;6.57;;;1.98;;
80557;SDS011;69901;43.524;-5.636;2023-06-22T11:01:06;5.70;;;2.37;;
80557;SDS011;69901;43.524;-5.636;2023-06-22T11:03:41;7.70;;;2.10;;
80557;SDS011;69901;43.524;-5.636;2023-06-22T11:06:26;6.45;;;2.08;;
80557;SDS011;69901;43.524;-5.636;2023-06-22T11:08:51;6.97;;;2.40;;
80557;SDS011;69901;43.524;-5.636;2023-06-22T11:11:17;5.37;;;2.07;;
80557;SDS011;69901;43.524;-5.636;2023-06-22T11:13:43;5.87;;;2.00;;
80557;SDS011;69901;43.524;-5.636;2023-06-22T11:16:08;5.47;;;1.55;;
80557;SDS011;69901;43.524;-5.636;2023-06-22T11:18:34;5.50;;;2.07;;
80557;SDS011;69901;43.524;-5.636;2023-06-22T11:20:59;5.30;;;2.17;;
80557;SDS011;69901;43.524;-5.636;2023-06-22T11:23:25;4.95;;;1.70;;
80557;SDS011;69901;43.524;-5.636;2023-06-22T11:25:52;7.15;;;2.00;;
80557;SDS011;69901;43.524;-5.636;2023-06-22T11:28:17;5.57;;;1.53;;
80557;SDS011;69901;43.524;-5.636;2023-06-22T11:30:43;4.73;;;1.60;;
80557;SDS011;69901;43.524;-5.636;2023-06-22T11:33:11;5.43;;;1.80;;
80557;SDS011;69901;43.524;-5.636;2023-06-22T11:35:36;5.93;;;2.00;;
80557;SDS011;69901;43.524;-5.636;2023-06-22T11:38:02;7.27;;;2.10;;
80557;SDS011;69901;43.524;-5.636;2023-06-22T11:40:28;6.25;;;2.35;;
80557;SDS011;69901;43.524;-5.636;2023-06-22T11:42:54;7.20;;;2.37;;
80557;SDS011;69901;43.524;-5.636;2023-06-22T11:45:19;10.53;;;3.80;;
80557;SDS011;69901;43.524;-5.636;2023-06-22T11:47:45;6.20;;;2.03;;
80557;SDS011;69901;43.524;-5.636;2023-06-22T11:50:10;5.80;;;1.63;;
80557;SDS011;69901;43.524;-5.636;2023-06-22T11:52:35;6.77;;;1.90;;
80557;SDS011;69901;43.524;-5.636;2023-06-22T11:55:01;6.37;;;2.10;;
80557;SDS011;69901;43.524;-5.636;2023-06-22T11:57:28;6.18;;;2.30;;
80557;SDS011;69901;43.524;-5.636;2023-06-22T11:59:56;7.37;;;2.00;;
80557;SDS011;69901;43.524;-5.636;2023-06-22T12:02:21;7.72;;;1.83;;
80557;SDS011;69901;43.524;-5.636;2023-06-22T12:04:46;7.00;;;2.37;;
80557;SDS011;69901;43.524;-5.636;2023-06-22T12:07:12;6.30;;;1.90;;
80557;SDS011;69901;43.524;-5.636;2023-06-22T12:09:37;5.97;;;2.13;;
80557;SDS011;69901;43.524;-5.636;2023-06-22T12:12:03;6.28;;;2.70;;
80557;SDS011;69901;43.524;-5.636;2023-06-22T12:14:29;4.93;;;1.70;;
80557;SDS011;69901;43.524;-5.636;2023-06-22T12:16:54;5.00;;;1.50;;
80557;SDS011;69901;43.524;-5.636;2023-06-22T12:19:19;6.63;;;1.70;;
80557;SDS011;69901;43.524;-5.636;2023-06-22T12:21:46;5.10;;;1.70;;
80557;SDS011;69901;43.524;-5.636;2023-06-22T12:24:11;6.33;;;1.77;;
80557;SDS011;69901;43.524;-5.636;2023-06-22T12:26:36;6.43;;;1.73;;
80557;SDS011;69901;43.524;-5.636;2023-06-22T12:29:02;7.43;;;2.00;;
80557;SDS011;69901;43.524;-5.636;2023-06-22T12:31:27;4.80;;;1.80;;
80557;SDS011;69901;43.524;-5.636;2023-06-22T12:33:52;6.37;;;1.70;;
80557;SDS011;69901;43.524;-5.636;2023-06-22T12:36:18;8.00;;;1.87;;
80557;SDS011;69901;43.524;-5.636;2023-06-22T12:38:43;8.17;;;2.10;;
80557;SDS011;69901;43.524;-5.636;2023-06-22T12:41:08;5.30;;;1.57;;
80557;SDS011;69901;43.524;-5.636;2023-06-22T12:43:34;7.97;;;2.60;;
80557;SDS011;69901;43.524;-5.636;2023-06-22T12:45:59;5.73;;;2.00;;
80557;SDS011;69901;43.524;-5.636;2023-06-22T12:48:25;6.03;;;2.22;;
80557;SDS011;69901;43.524;-5.636;2023-06-22T12:50:51;4.83;;;1.43;;
80557;SDS011;69901;43.524;-5.636;2023-06-22T12:53:16;7.80;;;2.40;;
80557;SDS011;69901;43.524;-5.636;2023-06-22T12:55:41;6.27;;;1.90;;
80557;SDS011;69901;43.524;-5.636;2023-06-22T12:58:06;7.23;;;1.63;;
80557;SDS011;69901;43.524;-5.636;2023-06-22T13:00:32;6.30;;;1.90;;
80557;SDS011;69901;43.524;-5.636;2023-06-22T13:02:57;5.80;;;1.67;;
80557;SDS011;69901;43.524;-5.636;2023-06-22T13:05:22;5.63;;;1.50;;
80557;SDS011;69901;43.524;-5.636;2023-06-22T13:07:48;5.73;;;1.60;;
80557;SDS011;69901;43.524;-5.636;2023-06-22T13:10:13;5.93;;;2.00;;
80557;SDS011;69901;43.524;-5.636;2023-06-22T13:12:38;5.93;;;1.65;;
80557;SDS011;69901;43.524;-5.636;2023-06-22T13:15:04;5.90;;;2.00;;
80557;SDS011;69901;43.524;-5.636;2023-06-22T13:17:29;6.10;;;1.87;;
80557;SDS011;69901;43.524;-5.636;2023-06-22T13:19:55;7.17;;;2.17;;
80557;SDS011;69901;43.524;-5.636;2023-06-22T13:22:26;6.97;;;1.97;;
80557;SDS011;69901;43.524;-5.636;2023-06-22T13:24:55;5.07;;;1.60;;
80557;SDS011;69901;43.524;-5.636;2023-06-22T13:27:20;7.83;;;1.73;;
80557;SDS011;69901;43.524;-5.636;2023-06-22T13:29:45;6.70;;;1.55;;
80557;SDS011;69901;43.524;-5.636;2023-06-22T13:32:11;6.37;;;1.77;;
80557;SDS011;69901;43.524;-5.636;2023-06-22T13:34:36;5.93;;;1.87;;
80557;SDS011;69901;43.524;-5.636;2023-06-22T13:37:01;6.93;;;2.07;;
80557;SDS011;69901;43.524;-5.636;2023-06-22T13:39:27;7.10;;;1.63;;
80557;SDS011;69901;43.524;-5.636;2023-06-22T13:41:52;7.37;;;2.00;;
80557;SDS011;69901;43.524;-5.636;2023-06-22T13:44:18;5.22;;;1.98;;
80557;SDS011;69901;43.524;-5.636;2023-06-22T13:46:44;7.63;;;2.20;;
80557;SDS011;69901;43.524;-5.636;2023-06-22T13:49:10;6.63;;;1.83;;
80557;SDS011;69901;43.524;-5.636;2023-06-22T13:51:36;6.20;;;1.53;;
80557;SDS011;69901;43.524;-5.636;2023-06-22T13:54:01;6.53;;;2.23;;
80557;SDS011;69901;43.524;-5.636;2023-06-22T13:56:26;6.70;;;1.80;;
80557;SDS011;69901;43.524;-5.636;2023-06-22T13:58:51;7.30;;;1.70;;
80557;SDS011;69901;43.524;-5.636;2023-06-22T14:01:17;5.83;;;1.70;;
80557;SDS011;69901;43.524;-5.636;2023-06-22T14:03:42;5.50;;;1.33;;
80557;SDS011;69901;43.524;-5.636;2023-06-22T14:06:10;4.82;;;1.75;;
80557;SDS011;69901;43.524;-5.636;2023-06-22T14:08:37;5.70;;;1.50;;
80557;SDS011;69901;43.524;-5.636;2023-06-22T14:11:02;7.68;;;1.85;;
80557;SDS011;69901;43.524;-5.636;2023-06-22T14:13:27;6.55;;;2.00;;
80557;SDS011;69901;43.524;-5.636;2023-06-22T14:15:53;6.17;;;2.00;;
80557;SDS011;69901;43.524;-5.636;2023-06-22T14:18:19;5.07;;;1.47;;
80557;SDS011;69901;43.524;-5.636;2023-06-22T14:20:44;5.93;;;1.50;;
80557;SDS011;69901;43.524;-5.636;2023-06-22T14:23:09;5.65;;;1.95;;
80557;SDS011;69901;43.524;-5.636;2023-06-22T14:25:35;5.67;;;1.97;;
80557;SDS011;69901;43.524;-5.636;2023-06-22T14:28:00;6.03;;;2.23;;
80557;SDS011;69901;43.524;-5.636;2023-06-22T14:30:25;6.03;;;2.03;;
80557;SDS011;69901;43.524;-5.636;2023-06-22T14:32:50;6.13;;;2.40;;